This is the latest recevied weather packets stored in our database for station/object E25WMA-7. If no packets are shown the sender has not sent any weather packets the latest 10 day(s).
| Time | Temp. | Humidity | Pressure | Rain* | Wind** | Luminosity | Snow |
|---|---|---|---|---|---|---|---|
| 1788541450 | 31.67° C | 65% | 1003 hPa | - | - | 0 W/m² | - |
| 1788540528 | 31.67° C | 65% | 1003 hPa | - | - | 0 W/m² | - |
| 1788539605 | 32.22° C | 64% | 1003 hPa | - | - | 0 W/m² | - |
| 1788538684 | 32.22° C | 63% | 1003 hPa | - | - | 0 W/m² | - |
| 1788537761 | 32.78° C | 62% | 1003 hPa | - | - | 0 W/m² | - |
| 1788536839 | 32.78° C | 61% | 1003 hPa | - | - | 0 W/m² | - |
| 1788535917 | 35° C | 55% | 1003 hPa | - | - | 0 W/m² | - |
| 1788534995 | 35° C | 55% | 1003 hPa | - | - | 0 W/m² | - |
| 1788534073 | 33.89° C | 59% | 1003 hPa | - | - | 0 W/m² | - |
| 1788533153 | 32.78° C | 62% | 1003 hPa | - | - | 0 W/m² | - |
| 1788532229 | 32.22° C | 62% | 1003 hPa | - | - | 0 W/m² | - |
| 1788531307 | 32.78° C | 61% | 1003 hPa | - | - | 0 W/m² | - |
| 1788530385 | 32.78° C | 60% | 1003 hPa | - | - | 0 W/m² | - |
| 1788529463 | 35° C | 54% | 1002 hPa | - | - | 0 W/m² | - |
| 1788528559 | 34.44° C | 55% | 1002 hPa | - | - | 0 W/m² | - |
| 1788527619 | 33.89° C | 57% | 1002 hPa | - | - | 0 W/m² | - |
| 1788526697 | 33.33° C | 60% | 1002 hPa | - | - | 0 W/m² | - |
| 1788525775 | 33.89° C | 57% | 1002 hPa | - | - | 0 W/m² | - |
| 1788524853 | 36.11° C | 51% | 1002 hPa | - | - | 0 W/m² | - |
| 1788523931 | 36.67° C | 50% | 1002 hPa | - | - | 0 W/m² | - |
| 1788523009 | 36.67° C | 50% | 1002 hPa | - | - | 0 W/m² | - |
| 1788522097 | 36.11° C | 50% | 1001 hPa | - | - | 0 W/m² | - |
| 1788521166 | 36.67° C | 52% | 1001 hPa | - | - | 0 W/m² | - |
| 1788520247 | 36.67° C | 52% | 1001 hPa | - | - | 0 W/m² | - |
| 1788519320 | 37.22° C | 51% | 1001 hPa | - | - | 0 W/m² | - |
* Rain since midnight (hover to see other rain measurements)
** Current wind speed in m/s (hover to see current wind gust speed)